Time;durP1;ratioP1;P1;durP2;ratioP2;P2;SDS_P1;SDS_P2;PMS_P1;PMS_P2;Temp;Humidity;BMP_temperature;BMP_pressure;BME280_temperature;BME280_humidity;BME280_pressure;Samples;Min_cycle;Max_cycle;Signal;HPM_P1;HPM_P2
2021/10/26 00:00:47;;;;;;;;;;;;;;;-0.85;100.00;100703.95;1707335;82;20191;-71
2021/10/26 00:03:14;;;;;;;;;;;;;;;-0.88;100.00;100706.39;1706329;82;21141;-70
2021/10/26 00:05:42;;;;;;;;;;;;;;;-0.89;100.00;100703.41;1703992;82;20710;-73
2021/10/26 00:08:08;;;;;;;;;;;;;;;-0.89;100.00;100698.13;1713363;81;20364;-72
2021/10/26 00:10:36;;;;;;;;;;;;;;;-0.87;100.00;100694.04;1711669;81;20294;-72
2021/10/26 00:13:03;;;;;;;;;;;;;;;-0.81;100.00;100691.28;1713861;81;20172;-72
2021/10/26 00:15:30;;;;;;;;;;;;;;;-0.78;100.00;100690.50;1715221;81;21122;-74
2021/10/26 00:17:56;;;;;;;;;;;;;;;-0.81;100.00;100683.37;1715604;81;20452;-71
2021/10/26 00:20:23;;;;;;;;;;;;;;;-0.89;100.00;100685.45;1692015;82;20173;-69
2021/10/26 00:22:50;;;;;;;;;;;;;;;-0.91;100.00;100686.08;1688478;82;20245;-70
2021/10/26 00:25:17;;;;;;;;;;;;;;;-0.96;100.00;100683.08;1687578;82;20262;-71
2021/10/26 00:27:43;;;;;;;;;;;;;;;-1.00;100.00;100681.25;1688269;82;21825;-71
2021/10/26 00:30:11;;;;;;;;;;;;;;;-1.05;100.00;100676.92;1689867;82;20181;-70
2021/10/26 00:32:37;;;;;;;;;;;;;;;-1.07;100.00;100679.37;1690172;82;20265;-70
2021/10/26 00:35:04;;;;;;;;;;;;;;;-1.13;100.00;100675.04;1688480;82;20295;-71
2021/10/26 00:37:33;;;;;;;;;;;;;;;-1.15;100.00;100666.45;1689192;82;20205;-72
2021/10/26 00:40:00;;;;;;;;;;;;;;;-1.15;100.00;100666.45;1688636;82;21563;-70
2021/10/26 00:42:27;;;;;;;;;;;;;;;-1.19;100.00;100665.09;1687291;82;20822;-73
2021/10/26 00:44:53;;;;;;;;;;;;;;;-1.17;100.00;100664.95;1687425;82;20199;-72
2021/10/26 00:47:19;;;;;;;;;;;;;;;-1.13;100.00;100661.02;1693643;82;20486;-73
2021/10/26 00:49:46;;;;;;;;;;;;;;;-1.07;100.00;100653.84;1689057;82;20230;-71
2021/10/26 00:52:13;;;;;;;;;;;;;;;-1.11;100.00;100653.79;1686788;82;21144;-71
2021/10/26 00:54:40;;;;;;;;;;;;;;;-1.12;100.00;100654.78;1688507;82;20175;-73
2021/10/26 00:57:08;;;;;;;;;;;;;;;-1.10;100.00;100651.52;1688839;82;20178;-72
2021/10/26 00:59:36;;;;;;;;;;;;;;;-1.07;100.00;100651.70;1688451;82;20150;-70
2021/10/26 01:02:24;;;;;;;;;;;;;;;-1.00;100.00;100642.21;1690071;82;20493;-74
2021/10/26 01:04:50;;;;;;;;;;;;;;;-1.00;100.00;100652.25;1607389;87;21223;-64
2021/10/26 01:07:17;;;;;;;;;;;;;;;-0.96;100.00;100646.17;1598139;87;20227;-64
2021/10/26 01:09:45;;;;;;;;;;;;;;;-0.93;100.00;100653.30;1582852;88;20089;-64
2021/10/26 01:12:12;;;;;;;;;;;;;;;-0.90;100.00;100653.49;1608810;87;20233;-64
2021/10/26 01:14:40;;;;;;;;;;;;;;;-0.93;100.00;100646.72;1628415;86;20225;-63
2021/10/26 01:17:09;;;;;;;;;;;;;;;-0.98;100.00;100650.30;1628502;86;21154;-63
2021/10/26 01:19:42;;;;;;;;;;;;;;;-1.00;100.00;100645.67;1627589;86;20475;-63
2021/10/26 01:22:09;;;;;;;;;;;;;;;-0.96;100.00;100650.95;1612894;87;20575;-65
2021/10/26 01:24:35;;;;;;;;;;;;;;;-1.00;100.00;100641.72;1606835;86;20253;-64
2021/10/26 01:27:01;;;;;;;;;;;;;;;-1.00;100.00;100644.34;1626988;86;20559;-63
2021/10/26 01:29:29;;;;;;;;;;;;;;;-1.01;100.00;100639.22;1626726;86;21138;-62
2021/10/26 01:31:56;;;;;;;;;;;;;;;-1.01;100.00;100640.53;1658974;85;20160;-64
2021/10/26 01:34:24;;;;;;;;;;;;;;;-1.04;100.00;100641.67;1661903;85;20108;-64
2021/10/26 01:36:50;;;;;;;;;;;;;;;-1.07;100.00;100628.80;1661620;84;20132;-63
2021/10/26 01:39:17;;;;;;;;;;;;;;;-1.01;100.00;100633.95;1660794;85;20183;-63
2021/10/26 01:41:44;;;;;;;;;;;;;;;-0.98;100.00;100635.80;1661741;86;21136;-62
2021/10/26 01:44:10;;;;;;;;;;;;;;;-1.00;100.00;100632.98;1649664;86;20253;-63
2021/10/26 01:46:39;;;;;;;;;;;;;;;-1.01;100.00;100622.91;1625859;87;20113;-63
2021/10/26 01:49:07;;;;;;;;;;;;;;;-1.00;100.00;100626.40;1653834;84;20441;-62
2021/10/26 01:51:34;;;;;;;;;;;;;;;-0.97;100.00;100624.77;1665541;84;20128;-63
2021/10/26 01:54:01;;;;;;;;;;;;;;;-0.95;100.00;100621.49;1664206;86;21032;-63
2021/10/26 01:56:28;;;;;;;;;;;;;;;-1.02;100.00;100615.17;1663521;85;20180;-63
2021/10/26 01:59:02;;;;;;;;;;;;;;;-1.01;100.00;100617.64;1663711;85;20148;-62
2021/10/26 02:01:39;;;;;;;;;;;;;;;-1.08;100.00;100617.91;1662358;85;20434;-63
2021/10/26 02:04:07;;;;;;;;;;;;;;;-1.10;100.00;100615.44;1677922;83;20211;-64
2021/10/26 02:06:35;;;;;;;;;;;;;;;-1.14;100.00;100616.72;1655773;84;21778;-63
2021/10/26 02:09:02;;;;;;;;;;;;;;;-1.15;100.00;100607.63;1689892;83;20096;-64
2021/10/26 02:11:28;;;;;;;;;;;;;;;-1.09;100.00;100609.67;1686761;83;20117;-63
2021/10/26 02:13:55;;;;;;;;;;;;;;;-1.10;100.00;100606.72;1679434;84;20116;-63
2021/10/26 02:16:22;;;;;;;;;;;;;;;-1.17;100.00;100606.98;1676736;84;20136;-63
2021/10/26 02:18:49;;;;;;;;;;;;;;;-1.17;100.00;100606.98;1680950;84;21222;-63
2021/10/26 02:21:15;;;;;;;;;;;;;;;-1.14;100.00;100606.18;1682047;84;20393;-64
2021/10/26 02:23:42;;;;;;;;;;;;;;;-1.14;100.00;100596.95;1682149;84;20123;-63
2021/10/26 02:26:08;;;;;;;;;;;;;;;-1.16;100.00;100603.36;1686342;85;20152;-62
2021/10/26 02:28:37;;;;;;;;;;;;;;;-1.21;100.00;100595.91;1679416;85;20116;-63
2021/10/26 02:31:04;;;;;;;;;;;;;;;-1.22;100.00;100592.13;1654161;85;21128;-63
2021/10/26 02:33:30;;;;;;;;;;;;;;;-1.21;100.00;100588.50;1658771;85;20161;-63
2021/10/26 02:35:57;;;;;;;;;;;;;;;-1.22;100.00;100592.13;1635791;86;20100;-62
2021/10/26 02:38:23;;;;;;;;;;;;;;;-1.21;100.00;100584.05;1651209;84;20085;-62
2021/10/26 02:40:49;;;;;;;;;;;;;;;-1.24;100.00;100586.17;1679648;84;20120;-62
2021/10/26 02:43:16;;;;;;;;;;;;;;;-1.27;100.00;100587.30;1681885;83;21068;-62
2021/10/26 02:45:42;;;;;;;;;;;;;;;-1.28;100.00;100590.08;1678617;83;20099;-63
2021/10/26 02:48:10;;;;;;;;;;;;;;;-1.28;100.00;100583.00;1680458;85;20405;-64
2021/10/26 02:50:36;;;;;;;;;;;;;;;-1.34;100.00;100581.81;1689933;84;20401;-64
2021/10/26 02:53:03;;;;;;;;;;;;;;;-1.35;100.00;100579.31;1690980;83;20083;-62
2021/10/26 02:55:30;;;;;;;;;;;;;;;-1.37;100.00;100578.63;1671730;85;21755;-62
2021/10/26 02:57:56;;;;;;;;;;;;;;;-1.44;100.00;100567.89;1681637;85;20123;-63
2021/10/26 03:00:23;;;;;;;;;;;;;;;-1.46;100.00;100572.48;1672328;84;20124;-63
2021/10/26 03:02:50;;;;;;;;;;;;;;;-1.43;100.00;100570.03;1665081;85;20412;-62
2021/10/26 03:05:17;;;;;;;;;;;;;;;-1.42;100.00;100564.62;1681736;84;20176;-62
2021/10/26 03:07:45;;;;;;;;;;;;;;;-1.42;100.00;100567.72;1686770;85;21878;-63
2021/10/26 03:10:12;;;;;;;;;;;;;;;-1.36;100.00;100567.13;1678881;85;20092;-62
2021/10/26 03:12:38;;;;;;;;;;;;;;;-1.38;100.00;100567.77;1690687;83;20106;-63
2021/10/26 03:15:06;;;;;;;;;;;;;;;-1.38;100.00;100562.01;1680831;84;20437;-63
2021/10/26 03:17:33;;;;;;;;;;;;;;;-1.35;100.00;100563.51;1680662;84;20442;-63
2021/10/26 03:20:09;;;;;;;;;;;;;;;-1.39;100.00;100559.55;1680479;85;21149;-63
2021/10/26 03:22:35;;;;;;;;;;;;;;;-1.35;100.00;100558.23;1686568;83;20387;-62
2021/10/26 03:25:04;;;;;;;;;;;;;;;-1.42;100.00;100557.19;1681897;85;20084;-62
2021/10/26 03:27:31;;;;;;;;;;;;;;;-1.44;100.00;100559.99;1682476;83;20115;-62
2021/10/26 03:29:58;;;;;;;;;;;;;;;-1.51;100.00;100565.03;1675463;83;20099;-62
2021/10/26 03:32:25;;;;;;;;;;;;;;;-1.48;100.00;100557.81;1684909;83;21736;-64
2021/10/26 03:35:10;;;;;;;;;;;;;;;-1.47;100.00;100559.45;1681709;84;20100;-61
2021/10/26 03:37:41;;;;;;;;;;;;;;;-1.47;100.00;100550.23;1684549;84;20084;-64
2021/10/26 03:40:09;;;;;;;;;;;;;;;-1.45;100.00;100546.97;1684486;83;20096;-63
2021/10/26 03:42:37;;;;;;;;;;;;;;;-1.42;100.00;100550.14;1681026;85;20113;-64
2021/10/26 03:45:07;;;;;;;;;;;;;;;-1.42;100.00;100553.23;1677094;83;21118;-63
2021/10/26 03:47:41;;;;;;;;;;;;;;;-1.47;100.00;100548.45;1677526;85;20410;-62
2021/10/26 03:50:08;;;;;;;;;;;;;;;-1.51;100.00;100553.67;1685433;84;20139;-63
2021/10/26 03:52:36;;;;;;;;;;;;;;;-1.54;100.00;100548.72;1679416;83;20105;-63
2021/10/26 03:55:04;;;;;;;;;;;;;;;-1.52;100.00;100554.63;1684380;83;20128;-62
2021/10/26 03:57:31;;;;;;;;;;;;;;;-1.56;100.00;100553.30;1678439;85;21111;-63
2021/10/26 03:59:58;;;;;;;;;;;;;;;-1.58;100.00;100552.13;1690281;83;20123;-64
2021/10/26 04:02:27;;;;;;;;;;;;;;;-1.59;100.00;100551.80;1680200;83;20072;-64
2021/10/26 04:04:57;;;;;;;;;;;;;;;-1.55;100.00;100552.31;1636186;85;20217;-62
2021/10/26 04:07:21;;;;;;;;;;;;;;;-1.53;100.00;100551.18;1627770;87;20207;-63
2021/10/26 04:12:24;;;;;;;;;;;;;;;-1.59;100.00;100545.22;1666897;84;20124;-62
2021/10/26 04:14:55;;;;;;;;;;;;;;;-1.64;100.00;100550.10;1663670;86;20227;-62
2021/10/26 04:17:24;;;;;;;;;;;;;;;-1.69;100.00;100548.41;1667881;84;20084;-62
2021/10/26 04:19:51;;;;;;;;;;;;;;;-1.79;100.00;100555.06;1666440;84;20425;-63
2021/10/26 04:22:17;;;;;;;;;;;;;;;-1.82;100.00;100555.34;1667854;84;21143;-64
2021/10/26 04:24:44;;;;;;;;;;;;;;;-1.84;100.00;100558.59;1668055;84;20083;-63
2021/10/26 04:27:12;;;;;;;;;;;;;;;-1.84;100.00;100552.02;1667533;84;20092;-62
2021/10/26 04:29:39;;;;;;;;;;;;;;;-1.84;100.00;100549.39;1668079;85;20627;-63
2021/10/26 04:32:07;;;;;;;;;;;;;;;-1.90;100.00;100545.23;1667862;84;20123;-62
2021/10/26 04:34:37;;;;;;;;;;;;;;;-1.93;100.00;100543.72;1667997;84;21133;-61
2021/10/26 04:37:06;;;;;;;;;;;;;;;-1.91;100.00;100552.30;1667853;86;20117;-63
2021/10/26 04:39:34;;;;;;;;;;;;;;;-1.92;100.00;100553.27;1667061;85;20120;-63
2021/10/26 04:42:01;;;;;;;;;;;;;;;-1.93;100.00;100552.94;1666041;84;20115;-64
2021/10/26 04:44:28;;;;;;;;;;;;;;;-1.97;100.00;100554.20;1666351;84;20476;-61
2021/10/26 04:46:55;;;;;;;;;;;;;;;-1.98;100.00;100550.74;1665396;84;21126;-62
2021/10/26 04:49:23;;;;;;;;;;;;;;;-1.96;100.00;100555.37;1663571;84;20150;-63
2021/10/26 04:51:49;;;;;;;;;;;;;;;-1.98;100.00;100548.61;1667840;84;20080;-62
2021/10/26 04:54:15;;;;;;;;;;;;;;;-1.91;100.00;100552.30;1665704;84;20359;-62
2021/10/26 04:56:42;;;;;;;;;;;;;;;-1.90;100.00;100557.07;1670624;84;20116;-63
2021/10/26 04:59:14;;;;;;;;;;;;;;;-1.90;100.00;100554.44;1639319;87;21132;-64
2021/10/26 05:01:41;;;;;;;;;;;;;;;-1.89;100.00;100550.81;1641118;87;20090;-63
2021/10/26 05:04:11;;;;;;;;;;;;;;;-1.83;100.00;100548.43;1674691;83;20184;-62
2021/10/26 05:06:38;;;;;;;;;;;;;;;-1.71;100.00;100550.36;1658914;83;20178;-63
2021/10/26 05:09:04;;;;;;;;;;;;;;;-1.57;100.00;100559.06;1691008;83;20082;-63
2021/10/26 05:11:31;;;;;;;;;;;;;;;-1.42;100.00;100550.61;1688222;85;21127;-63
2021/10/26 05:13:58;;;;;;;;;;;;;;;-1.28;100.00;100557.16;1684650;83;20140;-61
2021/10/26 05:16:44;;;;;;;;;;;;;;;-1.16;100.00;100548.03;1695261;83;20099;-63
2021/10/26 05:19:30;;;;;;;;;;;;;;;-1.01;100.00;100550.94;1687350;85;20120;-64
2021/10/26 05:22:02;;;;;;;;;;;;;;;-0.90;100.00;100555.97;1665925;84;20156;-63
2021/10/26 05:24:34;;;;;;;;;;;;;;;-0.78;100.00;100549.95;1685473;83;21127;-64
2021/10/26 05:27:01;;;;;;;;;;;;;;;-0.66;100.00;100550.84;1684228;83;20135;-62
2021/10/26 05:29:27;;;;;;;;;;;;;;;-0.52;100.00;100549.91;1685555;85;20127;-62
2021/10/26 05:31:54;;;;;;;;;;;;;;;-0.40;100.00;100558.38;1685749;85;20198;-63
2021/10/26 05:34:22;;;;;;;;;;;;;;;-0.26;100.00;100558.61;1685021;85;20159;-62
2021/10/26 05:36:48;;;;;;;;;;;;;;;-0.13;100.00;100554.70;1686218;85;21147;-62
2021/10/26 05:39:15;;;;;;;;;;;;;;;0.00;100.00;100557.73;1689470;85;20429;-62
2021/10/26 05:41:41;;;;;;;;;;;;;;;0.16;100.00;100565.68;1667098;85;20096;-62
2021/10/26 05:44:08;;;;;;;;;;;;;;;0.34;100.00;100570.01;1677256;83;20142;-63
2021/10/26 05:46:36;;;;;;;;;;;;;;;0.49;100.00;100565.77;1688107;85;20425;-64
2021/10/26 05:49:03;;;;;;;;;;;;;;;0.68;100.00;100565.10;1686776;83;21115;-64
2021/10/26 05:51:31;;;;;;;;;;;;;;;0.83;98.96;100570.91;1688259;83;20136;-65
2021/10/26 05:53:58;;;;;;;;;;;;;;;1.00;98.12;100576.98;1691055;83;20160;-63
2021/10/26 05:56:25;;;;;;;;;;;;;;;1.16;95.20;100570.88;1690012;83;20368;-64
2021/10/26 05:58:53;;;;;;;;;;;;;;;1.37;95.29;100575.64;1687553;85;20143;-65
2021/10/26 06:01:22;;;;;;;;;;;;;;;1.58;93.23;100572.43;1691938;83;21156;-64
2021/10/26 06:03:49;;;;;;;;;;;;;;;1.70;92.25;100575.55;1689034;82;20178;-64
2021/10/26 06:06:15;;;;;;;;;;;;;;;1.74;90.45;100580.83;1668170;84;20095;-64
2021/10/26 06:08:42;;;;;;;;;;;;;;;1.98;89.90;100582.53;1677240;84;20528;-64
2021/10/26 06:11:11;;;;;;;;;;;;;;;2.09;87.93;100580.02;1688357;83;20099;-64
2021/10/26 06:13:42;;;;;;;;;;;;;;;2.15;87.41;100577.98;1686822;85;20707;-63
2021/10/26 06:16:05;;;;;;;;;;;;;;;2.25;86.21;100579.91;1685903;85;20406;-65
2021/10/26 06:18:33;;;;;;;;;;;;;;;2.37;85.38;100588.30;1706452;83;20076;-64
2021/10/26 06:21:00;;;;;;;;;;;;;;;2.50;84.25;100584.59;1691840;83;20404;-63
2021/10/26 06:26:41;;;;;;;;;;;;;;;2.85;82.81;100572.24;1646720;85;20116;-64
2021/10/26 06:29:09;;;;;;;;;;;;;;;3.08;81.40;100583.63;1647300;86;20103;-64
2021/10/26 06:31:56;;;;;;;;;;;;;;;3.27;80.07;100585.46;1642343;86;20079;-62
2021/10/26 06:34:24;;;;;;;;;;;;;;;3.29;78.50;100580.30;1645812;86;20131;-62
2021/10/26 06:36:50;;;;;;;;;;;;;;;3.49;78.21;100584.56;1649940;85;20474;-64
2021/10/26 06:39:20;;;;;;;;;;;;;;;3.57;77.75;100582.33;1646833;86;21142;-62
2021/10/26 06:41:45;;;;;;;;;;;;;;;3.88;77.27;100584.80;1650300;85;20086;-63
2021/10/26 06:44:30;;;;;;;;;;;;;;;4.10;75.74;100578.22;1643390;85;20138;-63
2021/10/26 06:47:18;;;;;;;;;;;;;;;4.06;74.76;100576.42;1645378;86;20155;-62
2021/10/26 06:49:57;;;;;;;;;;;;;;;4.37;74.02;100579.34;1567801;90;20305;-63
2021/10/26 06:52:42;;;;;;;;;;;;;;;4.42;72.62;100575.11;1590220;89;21926;-62
2021/10/26 06:55:16;;;;;;;;;;;;;;;4.32;72.37;100565.29;1573320;90;20405;-63
2021/10/26 06:57:58;;;;;;;;;;;;;;;4.40;72.40;100567.00;1595812;89;20536;-63
2021/10/26 07:00:44;;;;;;;;;;;;;;;4.47;72.14;100570.55;1546647;91;20181;-63
2021/10/26 07:03:30;;;;;;;;;;;;;;;4.55;71.28;100570.94;1540551;91;20429;-63
2021/10/26 07:06:01;;;;;;;;;;;;;;;4.92;71.36;100567.18;1519722;93;21176;-63
2021/10/26 07:08:41;;;;;;;;;;;;;;;5.10;70.04;100569.39;1544958;91;20447;-63
2021/10/26 07:11:12;;;;;;;;;;;;;;;5.40;69.38;100572.67;1535457;91;20152;-62
2021/10/26 07:13:39;;;;;;;;;;;;;;;5.56;68.82;100576.37;1544291;91;20508;-63
2021/10/26 07:16:06;;;;;;;;;;;;;;;5.75;67.75;100576.15;1540539;91;20134;-63
2021/10/26 07:18:34;;;;;;;;;;;;;;;5.98;66.55;100574.56;1541035;90;21179;-64
2021/10/26 07:21:00;;;;;;;;;;;;;;;6.17;65.92;100564.16;1541711;91;20156;-66
2021/10/26 07:23:43;;;;;;;;;;;;;;;6.29;65.64;100563.08;1556584;90;20197;-62
2021/10/26 07:26:18;;;;;;;;;;;;;;;6.17;63.61;100561.02;1516837;92;20205;-62
2021/10/26 07:28:44;;;;;;;;;;;;;;;6.25;65.20;100562.67;1529617;91;20204;-62
2021/10/26 07:31:11;;;;;;;;;;;;;;;6.44;64.59;100561.06;1538370;92;21823;-61
2021/10/26 07:33:37;;;;;;;;;;;;;;;6.74;63.73;100550.05;1598885;88;20246;-63
2021/10/26 07:36:08;;;;;;;;;;;;;;;6.82;63.07;100547.17;1603857;88;20420;-62
2021/10/26 07:38:37;;;;;;;;;;;;;;;6.79;62.38;100538.25;1596830;88;20107;-62
2021/10/26 07:41:02;;;;;;;;;;;;;;;6.80;62.29;100534.55;1598840;88;20155;-61
2021/10/26 07:43:47;;;;;;;;;;;;;;;6.86;62.89;100537.73;1598744;88;21139;-61
2021/10/26 07:46:15;;;;;;;;;;;;;;;7.28;61.77;100537.80;1602677;88;20253;-60
2021/10/26 07:48:41;;;;;;;;;;;;;;;7.62;60.98;100539.05;1592908;88;20117;-60
2021/10/26 07:51:08;;;;;;;;;;;;;;;7.83;59.49;100543.31;1588876;88;20405;-61
2021/10/26 07:53:34;;;;;;;;;;;;;;;7.94;59.42;100542.66;1597747;88;20199;-60
2021/10/26 07:56:06;;;;;;;;;;;;;;;7.93;58.19;100531.64;1594669;88;21223;-60
2021/10/26 07:58:33;;;;;;;;;;;;;;;7.92;58.01;100538.03;1636183;85;20441;-61
2021/10/26 08:00:59;;;;;;;;;;;;;;;8.28;57.47;100530.77;1656978;85;20102;-61
2021/10/26 08:03:43;;;;;;;;;;;;;;;8.35;56.10;100526.69;1551225;91;20423;-61
2021/10/26 08:06:09;;;;;;;;;;;;;;;8.43;54.98;100525.64;1575344;89;20166;-61
2021/10/26 08:08:37;;;;;;;;;;;;;;;8.51;54.69;100530.23;1558774;90;21159;-60
2021/10/26 08:11:04;;;;;;;;;;;;;;;8.67;54.60;100528.91;1579698;90;20173;-61
2021/10/26 08:13:32;;;;;;;;;;;;;;;9.01;53.09;100525.41;1582672;89;20185;-60
2021/10/26 08:16:00;;;;;;;;;;;;;;;8.81;52.95;100529.59;1577059;89;20108;-61
2021/10/26 08:18:28;;;;;;;;;;;;;;;9.03;52.53;100519.85;1580209;89;20181;-61
2021/10/26 08:20:55;;;;;;;;;;;;;;;9.37;51.52;100523.85;1575722;90;21129;-60
2021/10/26 08:23:22;;;;;;;;;;;;;;;9.30;51.49;100525.25;1577553;90;20180;-60
2021/10/26 08:25:54;;;;;;;;;;;;;;;8.95;51.66;100516.41;1577451;91;20207;-60
2021/10/26 08:28:20;;;;;;;;;;;;;;;9.10;51.59;100511.23;1571328;89;20188;-61
2021/10/26 08:35:59;;;;;;;;;;;;;;;9.10;50.75;100499.19;1554863;90;20139;-61
2021/10/26 08:38:26;;;;;;;;;;;;;;;9.06;50.75;100506.02;1644338;85;20409;-61
2021/10/26 08:40:57;;;;;;;;;;;;;;;9.20;51.14;100511.02;1684075;85;20159;-62
2021/10/26 08:43:24;;;;;;;;;;;;;;;9.62;50.34;100511.19;1674145;84;20075;-62
2021/10/26 08:45:51;;;;;;;;;;;;;;;9.77;49.15;100509.47;1680941;85;21841;-62
2021/10/26 08:48:25;;;;;;;;;;;;;;;9.58;49.02;100510.02;1685588;83;20150;-62
2021/10/26 08:51:00;;;;;;;;;;;;;;;9.66;48.92;100501.66;1682066;84;20405;-61
2021/10/26 08:53:29;;;;;;;;;;;;;;;9.59;48.41;100508.96;1684624;82;20132;-60
2021/10/26 08:55:59;;;;;;;;;;;;;;;9.63;48.32;100508.02;1684382;83;20549;-61
2021/10/26 08:58:44;;;;;;;;;;;;;;;9.54;48.04;100499.44;1683365;83;21771;-61
2021/10/26 09:01:11;;;;;;;;;;;;;;;9.81;47.79;100505.30;1661490;85;20099;-62
2021/10/26 09:03:39;;;;;;;;;;;;;;;9.97;47.30;100496.33;1681591;83;20138;-61
2021/10/26 09:06:09;;;;;;;;;;;;;;;9.94;46.16;100490.89;1637968;85;20084;-60
2021/10/26 09:08:37;;;;;;;;;;;;;;;10.17;46.17;100490.72;1664515;84;20179;-61
2021/10/26 09:11:22;;;;;;;;;;;;;;;10.25;45.58;100501.93;1652358;85;21182;-61
2021/10/26 09:17:07;;;;;;;;;;;;;;;10.25;45.78;100493.07;1639098;85;20254;-61
2021/10/26 09:19:45;;;;;;;;;;;;;;;10.35;45.12;100499.26;1649254;84;20428;-60
2021/10/26 09:22:15;;;;;;;;;;;;;;;10.44;45.21;100503.26;1652561;86;20149;-61
2021/10/26 09:24:58;;;;;;;;;;;;;;;10.36;45.03;100494.17;1656438;85;21152;-60
2021/10/26 09:27:26;;;;;;;;;;;;;;;10.51;44.82;100489.22;1654810;85;20099;-60
2021/10/26 09:29:55;;;;;;;;;;;;;;;10.75;43.78;100486.55;1653540;84;20093;-60
2021/10/26 09:32:24;;;;;;;;;;;;;;;10.78;44.06;100484.73;1653281;85;20805;-60
2021/10/26 09:34:56;;;;;;;;;;;;;;;11.00;42.57;100475.08;1658173;85;20126;-60
2021/10/26 09:37:23;;;;;;;;;;;;;;;10.98;43.18;100477.17;1652390;85;21131;-59
2021/10/26 09:39:58;;;;;;;;;;;;;;;11.17;42.64;100480.56;1654877;83;20098;-61
2021/10/26 09:42:24;;;;;;;;;;;;;;;11.58;42.22;100476.03;1648800;85;20173;-62
2021/10/26 09:44:52;;;;;;;;;;;;;;;11.56;41.76;100472.76;1653944;85;20118;-62
2021/10/26 09:47:27;;;;;;;;;;;;;;;11.52;42.28;100467.05;1674664;85;20111;-61
2021/10/26 09:49:56;;;;;;;;;;;;;;;11.75;41.16;100474.77;1671712;85;21121;-61
2021/10/26 09:52:27;;;;;;;;;;;;;;;11.68;40.83;100452.03;1634248;86;21632;-61
2021/10/26 09:55:18;;;;;;;;;;;;;;;11.63;40.89;100449.24;1658796;84;20408;-62
2021/10/26 09:57:46;;;;;;;;;;;;;;;11.83;40.58;100454.20;1657815;86;20129;-62
2021/10/26 10:00:13;;;;;;;;;;;;;;;11.73;40.36;100453.47;1653244;85;20075;-60
2021/10/26 10:02:41;;;;;;;;;;;;;;;11.88;39.96;100453.52;1655004;85;21927;-63
2021/10/26 10:05:09;;;;;;;;;;;;;;;11.81;39.10;100448.27;1659087;84;20118;-63
2021/10/26 10:07:38;;;;;;;;;;;;;;;11.88;39.81;100443.59;1663468;84;20413;-62
2021/10/26 10:10:09;;;;;;;;;;;;;;;12.27;38.87;100441.56;1664597;86;20459;-62
2021/10/26 10:12:37;;;;;;;;;;;;;;;12.31;38.47;100446.23;1660895;86;20449;-62
2021/10/26 10:15:07;;;;;;;;;;;;;;;12.23;37.62;100438.02;1667138;85;20679;-62
2021/10/26 10:17:35;;;;;;;;;;;;;;;12.21;36.85;100425.88;1664555;86;20394;-63
2021/10/26 10:20:10;;;;;;;;;;;;;;;11.85;36.30;100417.13;1662867;85;20462;-62
2021/10/26 10:22:38;;;;;;;;;;;;;;;11.95;36.12;100415.17;1640153;85;20422;-63
2021/10/26 10:25:07;;;;;;;;;;;;;;;11.98;35.98;100429.52;1658733;85;20416;-62
2021/10/26 10:27:35;;;;;;;;;;;;;;;12.07;36.52;100429.39;1665627;84;21717;-62
2021/10/26 10:30:03;;;;;;;;;;;;;;;11.94;36.88;100418.94;1666048;86;20096;-63
2021/10/26 10:32:30;;;;;;;;;;;;;;;12.08;36.59;100416.73;1686983;84;20179;-63
2021/10/26 10:34:58;;;;;;;;;;;;;;;12.08;36.11;100409.52;1687295;85;20093;-61
2021/10/26 10:37:29;;;;;;;;;;;;;;;12.13;35.87;100416.86;1664918;85;20141;-62
2021/10/26 10:39:57;;;;;;;;;;;;;;;12.16;36.21;100406.95;1668209;86;21827;-62
2021/10/26 10:42:30;;;;;;;;;;;;;;;12.16;36.54;100400.22;1662115;86;20147;-64
2021/10/26 10:44:55;;;;;;;;;;;;;;;12.38;35.14;100403.00;1664216;84;20076;-63
2021/10/26 10:47:40;;;;;;;;;;;;;;;12.53;35.04;100397.04;1666749;84;20490;-62
2021/10/26 10:50:35;;;;;;;;;;;;;;;12.53;34.19;100395.16;1665985;84;20378;-62
2021/10/26 10:53:20;;;;;;;;;;;;;;;12.42;34.68;100407.66;1668337;84;21824;-65
2021/10/26 10:55:52;;;;;;;;;;;;;;;12.49;34.65;100395.35;1667470;84;20132;-62
2021/10/26 10:58:28;;;;;;;;;;;;;;;12.39;34.92;100381.20;1661294;85;20461;-63
2021/10/26 11:01:33;;;;;;;;;;;;;;;12.67;34.85;100386.75;1667939;85;20134;-64
2021/10/26 11:04:23;;;;;;;;;;;;;;;12.62;34.37;100388.30;1666652;86;20430;-64
2021/10/26 11:06:56;;;;;;;;;;;;;;;12.60;34.57;100376.95;1665443;85;21783;-65
2021/10/26 11:09:34;;;;;;;;;;;;;;;12.58;34.17;100381.77;1680797;85;20088;-63
2021/10/26 11:12:22;;;;;;;;;;;;;;;12.73;34.66;100382.52;1681230;83;20171;-61
2021/10/26 11:14:53;;;;;;;;;;;;;;;12.52;33.90;100373.84;1635475;87;20128;-64
2021/10/26 11:17:43;;;;;;;;;;;;;;;12.53;34.05;100382.23;1655826;85;20178;-64
2021/10/26 11:20:08;;;;;;;;;;;;;;;12.79;34.17;100375.34;1655294;86;21154;-64
2021/10/26 11:22:58;;;;;;;;;;;;;;;12.80;34.45;100363.49;1654797;86;20089;-63
2021/10/26 11:25:35;;;;;;;;;;;;;;;12.71;33.70;100360.39;1655037;86;20084;-66
2021/10/26 11:28:23;;;;;;;;;;;;;;;12.77;33.95;100359.95;1654375;86;20100;-63
2021/10/26 11:30:46;;;;;;;;;;;;;;;12.88;33.78;100352.28;1655869;85;20116;-62
2021/10/26 11:33:28;;;;;;;;;;;;;;;12.63;33.10;100353.56;1656614;86;21128;-64
2021/10/26 11:36:05;;;;;;;;;;;;;;;12.50;33.64;100348.53;1654898;86;20380;-63
2021/10/26 11:38:44;;;;;;;;;;;;;;;12.61;34.06;100342.22;1653306;85;20149;-66
2021/10/26 11:41:16;;;;;;;;;;;;;;;12.62;33.57;100341.17;1654022;85;20500;-64
2021/10/26 11:43:47;;;;;;;;;;;;;;;12.58;33.75;100336.52;1653346;85;20254;-65
2021/10/26 11:46:15;;;;;;;;;;;;;;;12.85;34.42;100329.88;1648828;85;21128;-66
2021/10/26 11:48:46;;;;;;;;;;;;;;;12.84;34.31;100325.57;1649016;86;20162;-64
2021/10/26 11:51:19;;;;;;;;;;;;;;;12.88;34.05;100321.30;1653922;85;20149;-65
2021/10/26 11:53:45;;;;;;;;;;;;;;;12.60;33.79;100323.09;1655572;85;20109;-65
2021/10/26 11:56:22;;;;;;;;;;;;;;;12.55;34.64;100323.56;1654629;86;20085;-65
2021/10/26 11:58:54;;;;;;;;;;;;;;;12.56;34.96;100315.22;1655981;86;21748;-64
2021/10/26 12:01:21;;;;;;;;;;;;;;;12.55;34.86;100307.41;1655418;85;20165;-63
2021/10/26 12:03:49;;;;;;;;;;;;;;;12.36;34.86;100310.89;1656146;86;20145;-63
2021/10/26 12:06:35;;;;;;;;;;;;;;;12.33;35.19;100311.39;1649033;85;20120;-63
2021/10/26 12:09:04;;;;;;;;;;;;;;;12.50;35.29;100310.84;1686096;85;20087;-63
2021/10/26 12:11:34;;;;;;;;;;;;;;;12.54;35.25;100297.67;1685169;85;21177;-62
2021/10/26 12:14:23;;;;;;;;;;;;;;;12.65;34.72;100294.08;1683053;85;20088;-63
2021/10/26 12:17:28;;;;;;;;;;;;;;;12.45;34.90;100293.27;1680635;85;20132;-63
2021/10/26 12:20:21;;;;;;;;;;;;;;;12.45;34.42;100295.96;1680248;85;20145;-64
2021/10/26 12:22:54;;;;;;;;;;;;;;;12.65;34.41;100294.08;1670347;84;20097;-64
2021/10/26 12:25:25;;;;;;;;;;;;;;;12.72;33.86;100287.16;1681335;85;21195;-64
2021/10/26 12:27:53;;;;;;;;;;;;;;;12.60;34.13;100294.00;1681539;85;20112;-64
2021/10/26 12:30:25;;;;;;;;;;;;;;;12.76;33.68;100284.23;1682192;84;20422;-65
2021/10/26 12:33:00;;;;;;;;;;;;;;;12.57;32.99;100276.47;1682046;85;20453;-64
2021/10/26 12:35:28;;;;;;;;;;;;;;;12.53;32.96;100285.29;1681705;83;20572;-64
2021/10/26 12:38:29;;;;;;;;;;;;;;;12.50;33.07;100287.14;1678465;84;21114;-65
2021/10/26 12:40:57;;;;;;;;;;;;;;;12.50;32.87;100281.76;1678574;85;20088;-63
2021/10/26 12:43:27;;;;;;;;;;;;;;;12.33;32.70;100262.95;1680548;85;20228;-64
2021/10/26 12:45:59;;;;;;;;;;;;;;;12.25;33.50;100274.95;1680125;84;20220;-63
2021/10/26 12:48:34;;;;;;;;;;;;;;;12.37;33.84;100282.91;1682237;83;20255;-64
2021/10/26 12:51:03;;;;;;;;;;;;;;;12.39;33.83;100269.48;1682647;84;21319;-64
2021/10/26 12:53:38;;;;;;;;;;;;;;;12.34;33.89;100275.33;1678981;85;20444;-65
2021/10/26 12:56:26;;;;;;;;;;;;;;;12.36;33.93;100271.86;1685855;85;20125;-64
2021/10/26 12:58:58;;;;;;;;;;;;;;;12.50;33.92;100270.45;1685164;84;20198;-64
2021/10/26 13:01:39;;;;;;;;;;;;;;;12.59;33.42;100260.87;1671355;83;20129;-65
2021/10/26 13:04:10;;;;;;;;;;;;;;;12.38;33.62;100258.97;1679401;83;21041;-63
2021/10/26 13:07:00;;;;;;;;;;;;;;;12.43;33.76;100260.39;1707083;83;20104;-65